createdAt,value
2023-04-12T00:01:49.194Z,7.05
2023-04-12T00:06:54.025Z,6.98
2023-04-12T00:11:59.607Z,6.85
2023-04-12T00:17:01.257Z,6.69
2023-04-12T00:22:03.133Z,6.53
2023-04-12T00:27:05.828Z,6.38
2023-04-12T00:32:07.502Z,6.31
2023-04-12T00:37:09.892Z,6.25
2023-04-12T00:42:12.048Z,6.16
2023-04-12T00:47:14.160Z,6.04
2023-04-12T00:52:17.671Z,5.91
2023-04-12T00:57:20.636Z,5.78
2023-04-12T01:02:23.101Z,5.67
2023-04-12T01:07:51.059Z,5.60
2023-04-12T01:13:14.129Z,5.51
2023-04-12T01:18:23.268Z,5.44
2023-04-12T01:23:43.272Z,5.36
2023-04-12T01:28:46.392Z,5.27
2023-04-12T01:33:51.019Z,5.23
2023-04-12T01:38:54.331Z,5.25
2023-04-12T01:43:56.656Z,5.34
2023-04-12T01:48:58.598Z,5.47
2023-04-12T01:54:10.925Z,5.61
2023-04-12T01:59:18.053Z,5.75
2023-04-12T02:04:21.536Z,5.86
2023-04-12T02:09:23.518Z,5.96
2023-04-12T02:14:26.616Z,6.06
2023-04-12T02:19:28.288Z,6.16
2023-04-12T02:24:30.403Z,6.25
2023-04-12T02:29:32.146Z,6.35
2023-04-12T02:34:36.176Z,6.44
2023-04-12T02:39:38.255Z,6.51
2023-04-12T02:44:41.564Z,6.56
2023-04-12T02:49:43.337Z,6.63
2023-04-12T02:54:45.625Z,6.70
2023-04-12T02:59:48.428Z,6.78
2023-04-12T03:04:50.606Z,6.86
2023-04-12T03:09:53.099Z,6.92
2023-04-12T03:14:54.975Z,6.98
2023-04-12T03:20:03.205Z,7.04
2023-04-12T03:25:05.837Z,7.10
2023-04-12T03:30:10.052Z,7.15
2023-04-12T03:35:11.829Z,7.20
2023-04-12T03:40:14.188Z,7.25
2023-04-12T03:45:16.275Z,7.30
2023-04-12T03:50:19.277Z,7.32
2023-04-12T03:55:21.392Z,7.36
2023-04-12T04:00:23.404Z,7.35
2023-04-12T04:05:25.519Z,7.38
2023-04-12T04:10:28.009Z,7.40
2023-04-12T04:15:29.987Z,7.44
2023-04-12T04:20:31.763Z,7.47
2023-04-12T04:25:33.807Z,7.48
2023-04-12T04:30:38.492Z,7.50
2023-04-12T04:35:41.099Z,7.55
2023-04-12T04:40:44.013Z,7.59
2023-04-12T04:45:50.363Z,7.69
2023-04-12T04:50:52.958Z,7.82
2023-04-12T04:55:59.042Z,7.91
2023-04-12T05:01:00.830Z,8.03
2023-04-12T05:06:03.458Z,8.08
2023-04-12T05:11:06.515Z,8.11
2023-04-12T05:16:09.135Z,8.16
2023-04-12T05:21:11.107Z,8.20
2023-04-12T05:26:13.475Z,8.21
2023-04-12T05:31:15.578Z,8.28
2023-04-12T05:36:17.456Z,8.38
2023-04-12T05:41:19.206Z,8.53
2023-04-12T05:46:21.418Z,8.67
2023-04-12T05:51:34.099Z,8.82
2023-04-12T05:56:39.889Z,9.15
2023-04-12T06:01:42.323Z,9.70
2023-04-12T06:06:44.441Z,10.12
2023-04-12T06:11:46.546Z,10.66
2023-04-12T06:16:48.938Z,11.11
2023-04-12T06:21:51.534Z,11.26
2023-04-12T06:26:53.204Z,11.20
2023-04-12T06:31:55.382Z,11.23
2023-04-12T06:36:58.392Z,11.45
2023-04-12T06:42:01.177Z,11.87
2023-04-12T06:47:03.612Z,12.34
2023-04-12T06:52:05.964Z,12.93
2023-04-12T06:57:11.417Z,13.70
2023-04-12T07:02:13.319Z,14.49
2023-04-12T07:07:15.275Z,14.99
2023-04-12T07:12:17.668Z,14.50
2023-04-12T07:17:20.879Z,14.47
2023-04-12T07:22:22.952Z,15.04
2023-04-12T07:27:24.844Z,15.88
2023-04-12T07:32:26.893Z,15.99
2023-04-12T07:37:29.095Z,15.71
2023-04-12T07:42:31.187Z,15.67
2023-04-12T07:47:33.329Z,15.93
2023-04-12T07:52:35.854Z,16.32
2023-04-12T07:57:37.741Z,16.73
2023-04-12T08:02:39.827Z,17.19
2023-04-12T08:07:41.808Z,17.63
2023-04-12T08:12:43.667Z,17.89
2023-04-12T08:17:46.195Z,19.14
2023-04-12T08:22:49.172Z,21.80
2023-04-12T08:27:51.546Z,23.29
2023-04-12T08:32:53.571Z,23.85
2023-04-12T08:37:55.612Z,23.35
2023-04-12T08:43:01.378Z,22.99
2023-04-12T08:48:05.502Z,22.89
2023-04-12T08:53:10.571Z,24.04
2023-04-12T08:58:16.533Z,25.52
2023-04-12T09:03:18.656Z,27.17
2023-04-12T09:08:21.220Z,28.63
2023-04-12T09:13:36.794Z,29.54
2023-04-12T09:18:51.599Z,30.13
2023-04-12T09:24:14.186Z,30.20
2023-04-12T09:29:27.094Z,29.60
2023-04-12T09:34:31.026Z,29.44
2023-04-12T09:39:34.224Z,28.65
2023-04-12T09:44:37.025Z,27.96
2023-04-12T09:49:43.805Z,26.93
2023-04-12T09:54:49.778Z,25.59
2023-04-12T09:59:57.387Z,25.65
2023-04-12T10:04:59.822Z,25.06
2023-04-12T10:10:04.785Z,24.51
2023-04-12T10:15:18.068Z,23.32
2023-04-12T10:20:24.686Z,22.15
2023-04-12T10:25:30.515Z,20.78
2023-04-12T10:30:33.034Z,20.14
2023-04-12T10:35:53.073Z,18.97
2023-04-12T10:41:15.397Z,18.54
2023-04-12T10:46:45.464Z,18.43
2023-04-12T10:52:10.341Z,18.75
2023-04-12T10:57:43.588Z,18.74
2023-04-12T11:03:07.955Z,18.46
2023-04-12T11:08:11.903Z,18.52
2023-04-12T11:13:14.679Z,18.48
2023-04-12T11:18:17.135Z,18.68
2023-04-12T11:23:19.350Z,18.71
2023-04-12T11:28:28.493Z,18.50
2023-04-12T11:33:36.518Z,18.46
2023-04-12T11:38:39.216Z,18.63
2023-04-12T11:43:42.323Z,18.90
2023-04-12T11:48:47.276Z,19.03
2023-04-12T11:53:52.938Z,19.16
2023-04-12T11:58:54.708Z,19.06
2023-04-12T12:03:58.986Z,18.90
2023-04-12T12:09:03.482Z,18.96
2023-04-12T12:14:07.110Z,19.08
2023-04-12T12:19:09.180Z,19.15
2023-04-12T12:24:14.027Z,19.07
2023-04-12T12:29:18.465Z,19.28
2023-04-12T12:34:20.848Z,19.49
2023-04-12T12:39:22.732Z,19.70
2023-04-12T12:44:25.228Z,19.85
2023-04-12T12:49:28.018Z,19.80
2023-04-12T12:54:40.083Z,19.72
2023-04-12T12:59:43.352Z,19.80
2023-04-12T13:04:45.596Z,19.66
2023-04-12T13:09:47.813Z,19.38
2023-04-12T13:14:49.502Z,19.25
2023-04-12T13:19:51.727Z,19.16
2023-04-12T13:24:54.983Z,18.93
2023-04-12T13:29:56.966Z,18.65
2023-04-12T13:35:00.067Z,18.42
2023-04-12T13:40:03.548Z,18.29
2023-04-12T13:45:07.520Z,18.15
2023-04-12T13:50:12.746Z,18.15
2023-04-12T13:55:14.656Z,18.31
2023-04-12T14:00:17.443Z,18.38
2023-04-12T14:05:19.423Z,18.31
2023-04-12T14:10:21.718Z,17.85
2023-04-12T14:15:23.900Z,17.39
2023-04-12T14:20:25.773Z,16.94
2023-04-12T14:25:27.846Z,16.46
2023-04-12T14:30:29.745Z,16.14
2023-04-12T14:35:33.048Z,15.91
2023-04-12T14:40:35.629Z,15.86
2023-04-12T14:45:37.710Z,15.63
2023-04-12T14:50:39.804Z,15.48
2023-04-12T14:55:42.607Z,15.40
2023-04-12T15:00:44.477Z,15.43
2023-04-12T15:05:46.755Z,15.54
2023-04-12T15:10:48.954Z,15.63
2023-04-12T15:15:50.836Z,15.73
2023-04-12T15:20:52.816Z,15.81
2023-04-12T15:26:01.028Z,15.95
2023-04-12T15:31:04.045Z,16.19
2023-04-12T15:36:07.051Z,16.35
2023-04-12T15:41:09.012Z,16.37
2023-04-12T15:46:13.393Z,16.27
2023-04-12T15:51:15.430Z,16.10
2023-04-12T15:56:23.752Z,15.86
2023-04-12T16:01:25.753Z,15.62
2023-04-12T16:06:30.071Z,15.36
2023-04-12T16:11:35.354Z,15.05
2023-04-12T16:16:40.079Z,14.81
2023-04-12T16:21:44.415Z,14.57
2023-04-12T16:26:48.178Z,14.40
2023-04-12T16:31:52.052Z,14.21
2023-04-12T16:36:55.576Z,13.98
2023-04-12T16:41:57.864Z,13.74
2023-04-12T16:47:00.106Z,13.53
2023-04-12T16:52:02.321Z,13.36
2023-04-12T16:57:06.457Z,13.21
2023-04-12T17:02:08.776Z,13.09
2023-04-12T17:07:11.241Z,12.89
2023-04-12T17:12:13.530Z,12.70
2023-04-12T17:17:15.910Z,12.47
2023-04-12T17:22:18.185Z,12.21
2023-04-12T17:27:20.911Z,11.92
2023-04-12T17:32:23.623Z,11.61
2023-04-12T17:37:29.305Z,11.30
2023-04-12T17:42:31.333Z,10.98
2023-04-12T17:47:34.695Z,10.68
2023-04-12T17:52:37.541Z,10.40
2023-04-12T17:57:40.031Z,10.16
2023-04-12T18:02:43.663Z,9.91
2023-04-12T18:07:46.247Z,9.68
2023-04-12T18:12:48.736Z,9.47
2023-04-12T18:17:50.693Z,9.27
2023-04-12T18:22:53.210Z,9.06
2023-04-12T18:27:55.499Z,8.86
2023-04-12T18:32:58.260Z,8.69
2023-04-12T18:38:01.740Z,8.55
2023-04-12T18:43:04.509Z,8.42
2023-04-12T18:48:08.660Z,8.31
2023-04-12T18:53:11.645Z,8.27
2023-04-12T18:58:13.837Z,8.17
2023-04-12T19:03:16.043Z,8.08
2023-04-12T19:08:20.451Z,8.00
2023-04-12T19:13:23.173Z,7.95
